sensor_id;sensor_type;location;lat;lon;timestamp;temperature;humidity
16829;DHT22;8531;48.078;11.968;2022-10-16T00:00:17;13.60;99.90
16829;DHT22;8531;48.078;11.968;2022-10-16T00:02:43;13.50;99.90
16829;DHT22;8531;48.078;11.968;2022-10-16T00:05:08;13.50;99.90
16829;DHT22;8531;48.078;11.968;2022-10-16T00:07:34;13.50;99.90
16829;DHT22;8531;48.078;11.968;2022-10-16T00:10:00;13.50;99.90
16829;DHT22;8531;48.078;11.968;2022-10-16T00:12:25;13.50;99.90
16829;DHT22;8531;48.078;11.968;2022-10-16T00:14:51;13.40;99.90
16829;DHT22;8531;48.078;11.968;2022-10-16T00:17:17;13.30;99.90
16829;DHT22;8531;48.078;11.968;2022-10-16T00:19:43;13.30;99.90
16829;DHT22;8531;48.078;11.968;2022-10-16T00:22:08;13.20;99.90
16829;DHT22;8531;48.078;11.968;2022-10-16T00:24:34;13.20;99.90
16829;DHT22;8531;48.078;11.968;2022-10-16T00:26:59;13.20;99.90
16829;DHT22;8531;48.078;11.968;2022-10-16T00:29:25;13.10;99.90
16829;DHT22;8531;48.078;11.968;2022-10-16T00:31:51;13.20;99.90
16829;DHT22;8531;48.078;11.968;2022-10-16T00:34:16;13.20;99.90
16829;DHT22;8531;48.078;11.968;2022-10-16T00:36:42;13.10;99.90
16829;DHT22;8531;48.078;11.968;2022-10-16T00:39:08;13.10;99.90
16829;DHT22;8531;48.078;11.968;2022-10-16T00:41:34;13.10;99.90
16829;DHT22;8531;48.078;11.968;2022-10-16T00:44:02;13.10;99.90
16829;DHT22;8531;48.078;11.968;2022-10-16T00:46:39;13.10;99.90
16829;DHT22;8531;48.078;11.968;2022-10-16T00:49:14;13.10;99.90
16829;DHT22;8531;48.078;11.968;2022-10-16T00:51:52;13.00;99.90
16829;DHT22;8531;48.078;11.968;2022-10-16T00:54:25;13.00;99.90
16829;DHT22;8531;48.078;11.968;2022-10-16T00:56:52;13.00;99.90
16829;DHT22;8531;48.078;11.968;2022-10-16T00:59:21;13.00;99.90
16829;DHT22;8531;48.078;11.968;2022-10-16T01:01:50;12.90;99.90
16829;DHT22;8531;48.078;11.968;2022-10-16T01:04:16;12.90;99.90
16829;DHT22;8531;48.078;11.968;2022-10-16T01:09:37;12.90;99.90
16829;DHT22;8531;48.078;11.968;2022-10-16T01:12:10;12.90;99.90
16829;DHT22;8531;48.078;11.968;2022-10-16T01:14:47;12.90;99.90
16829;DHT22;8531;48.078;11.968;2022-10-16T01:17:25;12.90;99.90
16829;DHT22;8531;48.078;11.968;2022-10-16T01:20:14;12.90;99.90
16829;DHT22;8531;48.078;11.968;2022-10-16T01:23:18;12.90;99.90
16829;DHT22;8531;48.078;11.968;2022-10-16T01:31:26;12.70;99.90
16829;DHT22;8531;48.078;11.968;2022-10-16T01:34:08;12.70;99.90
16829;DHT22;8531;48.078;11.968;2022-10-16T01:36:39;12.70;99.90
16829;DHT22;8531;48.078;11.968;2022-10-16T01:39:07;12.70;99.90
16829;DHT22;8531;48.078;11.968;2022-10-16T01:41:45;12.70;99.90
16829;DHT22;8531;48.078;11.968;2022-10-16T01:44:25;12.70;99.90
16829;DHT22;8531;48.078;11.968;2022-10-16T01:46:52;12.70;99.90
16829;DHT22;8531;48.078;11.968;2022-10-16T01:49:21;12.60;99.90
16829;DHT22;8531;48.078;11.968;2022-10-16T01:51:50;12.60;99.90
16829;DHT22;8531;48.078;11.968;2022-10-16T01:54:19;12.50;99.90
16829;DHT22;8531;48.078;11.968;2022-10-16T01:56:46;12.50;99.90
16829;DHT22;8531;48.078;11.968;2022-10-16T01:59:16;12.50;99.90
16829;DHT22;8531;48.078;11.968;2022-10-16T02:01:47;12.50;99.90
16829;DHT22;8531;48.078;11.968;2022-10-16T02:04:57;12.60;99.90
16829;DHT22;8531;48.078;11.968;2022-10-16T02:07:24;12.50;99.90
16829;DHT22;8531;48.078;11.968;2022-10-16T02:09:50;12.40;99.90
16829;DHT22;8531;48.078;11.968;2022-10-16T02:12:29;12.50;99.90
16829;DHT22;8531;48.078;11.968;2022-10-16T02:14:56;12.40;99.90
16829;DHT22;8531;48.078;11.968;2022-10-16T02:17:23;12.50;99.90
16829;DHT22;8531;48.078;11.968;2022-10-16T02:19:51;12.50;99.90
16829;DHT22;8531;48.078;11.968;2022-10-16T02:24:57;12.50;99.90
16829;DHT22;8531;48.078;11.968;2022-10-16T02:30:48;12.40;99.90
16829;DHT22;8531;48.078;11.968;2022-10-16T02:33:15;12.30;99.90
16829;DHT22;8531;48.078;11.968;2022-10-16T02:35:43;12.30;99.90
16829;DHT22;8531;48.078;11.968;2022-10-16T02:38:10;12.30;99.90
16829;DHT22;8531;48.078;11.968;2022-10-16T02:40:37;12.20;99.90
16829;DHT22;8531;48.078;11.968;2022-10-16T02:43:04;12.20;99.90
16829;DHT22;8531;48.078;11.968;2022-10-16T02:45:29;12.30;99.90
16829;DHT22;8531;48.078;11.968;2022-10-16T02:47:55;12.30;99.90
16829;DHT22;8531;48.078;11.968;2022-10-16T02:50:21;12.30;99.90
16829;DHT22;8531;48.078;11.968;2022-10-16T02:52:48;12.20;99.90
16829;DHT22;8531;48.078;11.968;2022-10-16T02:55:14;12.20;99.90
16829;DHT22;8531;48.078;11.968;2022-10-16T02:57:40;12.10;99.90
16829;DHT22;8531;48.078;11.968;2022-10-16T03:00:11;12.10;99.90
16829;DHT22;8531;48.078;11.968;2022-10-16T03:02:37;12.10;99.90
16829;DHT22;8531;48.078;11.968;2022-10-16T03:05:03;12.00;99.90
16829;DHT22;8531;48.078;11.968;2022-10-16T03:07:29;12.00;99.90
16829;DHT22;8531;48.078;11.968;2022-10-16T03:09:55;12.00;99.90
16829;DHT22;8531;48.078;11.968;2022-10-16T03:12:21;12.00;99.90
16829;DHT22;8531;48.078;11.968;2022-10-16T03:14:47;12.00;99.90
16829;DHT22;8531;48.078;11.968;2022-10-16T03:17:13;12.00;99.90
16829;DHT22;8531;48.078;11.968;2022-10-16T03:19:39;12.00;99.90
16829;DHT22;8531;48.078;11.968;2022-10-16T03:22:05;12.00;99.90
16829;DHT22;8531;48.078;11.968;2022-10-16T03:24:31;12.00;99.90
16829;DHT22;8531;48.078;11.968;2022-10-16T03:26:56;12.00;99.90
16829;DHT22;8531;48.078;11.968;2022-10-16T03:29:22;11.90;99.90
16829;DHT22;8531;48.078;11.968;2022-10-16T03:31:48;11.80;99.90
16829;DHT22;8531;48.078;11.968;2022-10-16T03:34:15;11.80;99.90
16829;DHT22;8531;48.078;11.968;2022-10-16T03:36:41;11.70;99.90
16829;DHT22;8531;48.078;11.968;2022-10-16T03:39:06;11.70;99.90
16829;DHT22;8531;48.078;11.968;2022-10-16T03:41:32;11.70;99.90
16829;DHT22;8531;48.078;11.968;2022-10-16T03:43:57;11.70;99.90
16829;DHT22;8531;48.078;11.968;2022-10-16T03:46:23;11.80;99.90
16829;DHT22;8531;48.078;11.968;2022-10-16T03:48:49;11.80;99.90
16829;DHT22;8531;48.078;11.968;2022-10-16T03:51:15;11.80;99.90
16829;DHT22;8531;48.078;11.968;2022-10-16T03:53:40;11.70;99.90
16829;DHT22;8531;48.078;11.968;2022-10-16T03:56:06;11.80;99.90
16829;DHT22;8531;48.078;11.968;2022-10-16T03:58:32;11.70;99.90
16829;DHT22;8531;48.078;11.968;2022-10-16T04:00:58;11.70;99.90
16829;DHT22;8531;48.078;11.968;2022-10-16T04:03:23;11.70;99.90
16829;DHT22;8531;48.078;11.968;2022-10-16T04:05:49;11.70;99.90
16829;DHT22;8531;48.078;11.968;2022-10-16T04:08:15;11.70;99.90
16829;DHT22;8531;48.078;11.968;2022-10-16T04:10:42;11.80;99.90
16829;DHT22;8531;48.078;11.968;2022-10-16T04:13:09;11.80;99.90
16829;DHT22;8531;48.078;11.968;2022-10-16T04:15:34;11.80;99.90
16829;DHT22;8531;48.078;11.968;2022-10-16T04:18:00;11.80;99.90
16829;DHT22;8531;48.078;11.968;2022-10-16T04:20:26;11.80;99.90
16829;DHT22;8531;48.078;11.968;2022-10-16T04:22:51;11.90;99.90
16829;DHT22;8531;48.078;11.968;2022-10-16T04:25:17;11.90;99.90
16829;DHT22;8531;48.078;11.968;2022-10-16T04:27:43;12.10;99.90
16829;DHT22;8531;48.078;11.968;2022-10-16T04:30:08;12.20;99.90
16829;DHT22;8531;48.078;11.968;2022-10-16T04:32:34;12.30;99.90
16829;DHT22;8531;48.078;11.968;2022-10-16T04:35:00;12.40;99.90
16829;DHT22;8531;48.078;11.968;2022-10-16T04:37:26;12.40;99.90
16829;DHT22;8531;48.078;11.968;2022-10-16T04:39:53;12.40;99.90
16829;DHT22;8531;48.078;11.968;2022-10-16T04:42:19;12.50;99.90
16829;DHT22;8531;48.078;11.968;2022-10-16T04:44:45;12.50;99.90
16829;DHT22;8531;48.078;11.968;2022-10-16T04:47:12;12.50;99.90
16829;DHT22;8531;48.078;11.968;2022-10-16T04:49:37;12.50;99.90
16829;DHT22;8531;48.078;11.968;2022-10-16T04:52:03;12.50;99.90
16829;DHT22;8531;48.078;11.968;2022-10-16T04:54:29;12.60;99.90
16829;DHT22;8531;48.078;11.968;2022-10-16T04:56:55;12.60;99.90
16829;DHT22;8531;48.078;11.968;2022-10-16T04:59:21;12.60;99.90
16829;DHT22;8531;48.078;11.968;2022-10-16T05:01:47;12.60;99.90
16829;DHT22;8531;48.078;11.968;2022-10-16T05:04:13;12.60;99.90
16829;DHT22;8531;48.078;11.968;2022-10-16T05:06:40;12.60;99.90
16829;DHT22;8531;48.078;11.968;2022-10-16T05:09:06;12.60;99.90
16829;DHT22;8531;48.078;11.968;2022-10-16T05:11:33;12.60;99.90
16829;DHT22;8531;48.078;11.968;2022-10-16T05:13:59;12.60;99.90
16829;DHT22;8531;48.078;11.968;2022-10-16T05:16:25;12.60;99.90
16829;DHT22;8531;48.078;11.968;2022-10-16T05:18:53;12.60;99.90
16829;DHT22;8531;48.078;11.968;2022-10-16T05:21:20;12.60;99.90
16829;DHT22;8531;48.078;11.968;2022-10-16T05:23:46;12.60;99.90
16829;DHT22;8531;48.078;11.968;2022-10-16T05:26:11;12.60;99.90
16829;DHT22;8531;48.078;11.968;2022-10-16T05:28:37;12.70;99.90
16829;DHT22;8531;48.078;11.968;2022-10-16T05:31:07;12.60;99.90
16829;DHT22;8531;48.078;11.968;2022-10-16T05:33:33;12.70;99.90
16829;DHT22;8531;48.078;11.968;2022-10-16T05:36:03;12.70;99.90
16829;DHT22;8531;48.078;11.968;2022-10-16T05:38:30;12.70;99.90
16829;DHT22;8531;48.078;11.968;2022-10-16T05:40:56;12.60;99.90
16829;DHT22;8531;48.078;11.968;2022-10-16T05:43:22;12.60;99.90
16829;DHT22;8531;48.078;11.968;2022-10-16T05:45:59;12.70;99.90
16829;DHT22;8531;48.078;11.968;2022-10-16T05:48:25;12.70;99.90
16829;DHT22;8531;48.078;11.968;2022-10-16T05:50:59;12.70;99.90
16829;DHT22;8531;48.078;11.968;2022-10-16T05:53:26;12.70;99.90
16829;DHT22;8531;48.078;11.968;2022-10-16T05:55:53;12.70;99.90
16829;DHT22;8531;48.078;11.968;2022-10-16T05:58:19;12.70;99.90
16829;DHT22;8531;48.078;11.968;2022-10-16T06:00:44;12.70;99.90
16829;DHT22;8531;48.078;11.968;2022-10-16T06:03:17;12.80;99.90
16829;DHT22;8531;48.078;11.968;2022-10-16T06:05:43;12.80;99.90
16829;DHT22;8531;48.078;11.968;2022-10-16T06:08:08;12.80;99.90
16829;DHT22;8531;48.078;11.968;2022-10-16T06:10:34;12.80;99.90
16829;DHT22;8531;48.078;11.968;2022-10-16T06:13:00;12.80;99.90
16829;DHT22;8531;48.078;11.968;2022-10-16T06:15:26;12.80;99.90
16829;DHT22;8531;48.078;11.968;2022-10-16T06:17:51;12.80;99.90
16829;DHT22;8531;48.078;11.968;2022-10-16T06:20:17;12.80;99.90
16829;DHT22;8531;48.078;11.968;2022-10-16T06:22:43;12.90;99.90
16829;DHT22;8531;48.078;11.968;2022-10-16T06:25:08;12.90;99.90
16829;DHT22;8531;48.078;11.968;2022-10-16T06:27:34;12.90;99.90
16829;DHT22;8531;48.078;11.968;2022-10-16T06:29:59;12.90;99.90
16829;DHT22;8531;48.078;11.968;2022-10-16T06:32:27;12.90;99.90
16829;DHT22;8531;48.078;11.968;2022-10-16T06:34:52;12.90;99.90
16829;DHT22;8531;48.078;11.968;2022-10-16T06:37:18;13.00;99.90
16829;DHT22;8531;48.078;11.968;2022-10-16T06:39:44;12.90;99.90
16829;DHT22;8531;48.078;11.968;2022-10-16T06:42:09;13.00;99.90
16829;DHT22;8531;48.078;11.968;2022-10-16T06:44:35;13.10;99.90
16829;DHT22;8531;48.078;11.968;2022-10-16T06:47:01;13.00;99.90
16829;DHT22;8531;48.078;11.968;2022-10-16T06:49:26;13.10;99.90
16829;DHT22;8531;48.078;11.968;2022-10-16T06:51:53;13.10;99.90
16829;DHT22;8531;48.078;11.968;2022-10-16T06:54:19;13.10;99.90
16829;DHT22;8531;48.078;11.968;2022-10-16T06:56:45;13.20;99.90
16829;DHT22;8531;48.078;11.968;2022-10-16T06:59:11;13.20;99.90
16829;DHT22;8531;48.078;11.968;2022-10-16T07:01:37;13.30;99.90
16829;DHT22;8531;48.078;11.968;2022-10-16T07:04:02;13.40;99.90
16829;DHT22;8531;48.078;11.968;2022-10-16T07:06:31;13.50;99.90
16829;DHT22;8531;48.078;11.968;2022-10-16T07:08:57;13.50;99.90
16829;DHT22;8531;48.078;11.968;2022-10-16T07:11:23;13.60;99.90
16829;DHT22;8531;48.078;11.968;2022-10-16T07:13:50;13.60;99.90
16829;DHT22;8531;48.078;11.968;2022-10-16T07:16:21;13.60;99.90
16829;DHT22;8531;48.078;11.968;2022-10-16T07:18:47;13.70;99.90
16829;DHT22;8531;48.078;11.968;2022-10-16T07:21:19;13.70;99.90
16829;DHT22;8531;48.078;11.968;2022-10-16T07:23:52;13.80;99.90
16829;DHT22;8531;48.078;11.968;2022-10-16T07:26:18;13.90;99.90
16829;DHT22;8531;48.078;11.968;2022-10-16T07:28:44;14.00;99.90
16829;DHT22;8531;48.078;11.968;2022-10-16T07:31:12;14.10;99.90
16829;DHT22;8531;48.078;11.968;2022-10-16T07:33:40;14.20;99.90
16829;DHT22;8531;48.078;11.968;2022-10-16T07:36:07;14.30;99.90
16829;DHT22;8531;48.078;11.968;2022-10-16T07:38:33;14.30;99.90
16829;DHT22;8531;48.078;11.968;2022-10-16T07:41:00;14.40;99.90
16829;DHT22;8531;48.078;11.968;2022-10-16T07:43:27;14.50;99.90
16829;DHT22;8531;48.078;11.968;2022-10-16T07:45:52;14.60;99.90
16829;DHT22;8531;48.078;11.968;2022-10-16T07:48:19;14.70;99.90
16829;DHT22;8531;48.078;11.968;2022-10-16T07:50:45;14.90;99.90
16829;DHT22;8531;48.078;11.968;2022-10-16T07:53:11;15.00;99.90
16829;DHT22;8531;48.078;11.968;2022-10-16T07:55:37;15.10;99.90
16829;DHT22;8531;48.078;11.968;2022-10-16T07:58:03;15.20;99.90
16829;DHT22;8531;48.078;11.968;2022-10-16T08:00:29;15.20;99.90
16829;DHT22;8531;48.078;11.968;2022-10-16T08:02:54;15.30;99.90
16829;DHT22;8531;48.078;11.968;2022-10-16T08:05:22;15.40;99.90
16829;DHT22;8531;48.078;11.968;2022-10-16T08:07:50;15.40;99.90
16829;DHT22;8531;48.078;11.968;2022-10-16T08:10:18;15.50;99.90
16829;DHT22;8531;48.078;11.968;2022-10-16T08:12:44;15.50;99.90
16829;DHT22;8531;48.078;11.968;2022-10-16T08:15:10;15.50;99.90
16829;DHT22;8531;48.078;11.968;2022-10-16T08:17:36;15.60;99.90
16829;DHT22;8531;48.078;11.968;2022-10-16T08:20:01;15.60;99.90
16829;DHT22;8531;48.078;11.968;2022-10-16T08:22:27;15.70;99.90
16829;DHT22;8531;48.078;11.968;2022-10-16T08:24:53;15.80;99.90
16829;DHT22;8531;48.078;11.968;2022-10-16T08:27:19;15.80;99.90
16829;DHT22;8531;48.078;11.968;2022-10-16T08:29:44;15.90;99.90
16829;DHT22;8531;48.078;11.968;2022-10-16T08:32:10;16.10;99.90
16829;DHT22;8531;48.078;11.968;2022-10-16T08:34:36;16.10;99.90
16829;DHT22;8531;48.078;11.968;2022-10-16T08:37:02;16.30;99.90
16829;DHT22;8531;48.078;11.968;2022-10-16T08:39:28;16.40;99.90
16829;DHT22;8531;48.078;11.968;2022-10-16T08:45:21;16.60;99.90
16829;DHT22;8531;48.078;11.968;2022-10-16T08:48:08;16.60;99.90
16829;DHT22;8531;48.078;11.968;2022-10-16T08:50:38;16.70;99.90
16829;DHT22;8531;48.078;11.968;2022-10-16T08:53:05;17.00;99.90
16829;DHT22;8531;48.078;11.968;2022-10-16T08:55:43;17.00;99.90
16829;DHT22;8531;48.078;11.968;2022-10-16T08:58:15;17.10;99.90
16829;DHT22;8531;48.078;11.968;2022-10-16T09:00:44;17.20;99.90
16829;DHT22;8531;48.078;11.968;2022-10-16T09:03:21;17.30;99.90
16829;DHT22;8531;48.078;11.968;2022-10-16T09:06:51;17.40;99.90
16829;DHT22;8531;48.078;11.968;2022-10-16T09:23:12;18.20;99.90
16829;DHT22;8531;48.078;11.968;2022-10-16T09:25:42;18.40;99.90
16829;DHT22;8531;48.078;11.968;2022-10-16T09:28:08;18.50;99.90
16829;DHT22;8531;48.078;11.968;2022-10-16T09:30:35;18.60;99.90
16829;DHT22;8531;48.078;11.968;2022-10-16T09:33:03;18.60;99.90
16829;DHT22;8531;48.078;11.968;2022-10-16T09:35:42;18.70;99.90
16829;DHT22;8531;48.078;11.968;2022-10-16T09:38:09;18.90;
16829;DHT22;8531;48.078;11.968;2022-10-16T09:40:46;18.90;99.90
16829;DHT22;8531;48.078;11.968;2022-10-16T09:43:20;19.00;99.90
16829;DHT22;8531;48.078;11.968;2022-10-16T09:48:36;19.30;99.90
16829;DHT22;8531;48.078;11.968;2022-10-16T09:51:05;19.20;99.90
16829;DHT22;8531;48.078;11.968;2022-10-16T09:53:44;19.30;99.90
16829;DHT22;8531;48.078;11.968;2022-10-16T09:56:43;19.50;99.90
16829;DHT22;8531;48.078;11.968;2022-10-16T09:59:13;19.60;99.90
16829;DHT22;8531;48.078;11.968;2022-10-16T10:04:07;19.70;99.90
16829;DHT22;8531;48.078;11.968;2022-10-16T10:09:27;19.90;99.90
16829;DHT22;8531;48.078;11.968;2022-10-16T10:14:27;20.00;99.90
16829;DHT22;8531;48.078;11.968;2022-10-16T10:17:25;20.00;99.90
16829;DHT22;8531;48.078;11.968;2022-10-16T10:22:45;20.40;99.90
16829;DHT22;8531;48.078;11.968;2022-10-16T10:27:49;20.60;99.90
16829;DHT22;8531;48.078;11.968;2022-10-16T10:30:34;20.60;99.90
16829;DHT22;8531;48.078;11.968;2022-10-16T10:33:17;20.70;99.90
16829;DHT22;8531;48.078;11.968;2022-10-16T10:38:38;20.90;99.90
16829;DHT22;8531;48.078;11.968;2022-10-16T10:41:31;21.00;99.90
16829;DHT22;8531;48.078;11.968;2022-10-16T10:46:36;21.30;99.90
16829;DHT22;8531;48.078;11.968;2022-10-16T10:57:10;21.50;99.90
16829;DHT22;8531;48.078;11.968;2022-10-16T11:07:25;22.00;99.90
16829;DHT22;8531;48.078;11.968;2022-10-16T11:09:56;22.00;99.90
16829;DHT22;8531;48.078;11.968;2022-10-16T11:12:30;22.20;99.90
16829;DHT22;8531;48.078;11.968;2022-10-16T11:17:33;22.50;99.90
16829;DHT22;8531;48.078;11.968;2022-10-16T11:22:52;22.80;99.90
16829;DHT22;8531;48.078;11.968;2022-10-16T11:25:30;22.80;99.90
16829;DHT22;8531;48.078;11.968;2022-10-16T11:28:25;23.10;99.90
16829;DHT22;8531;48.078;11.968;2022-10-16T11:37:20;23.50;99.90
16829;DHT22;8531;48.078;11.968;2022-10-16T11:39:50;23.60;99.90
16829;DHT22;8531;48.078;11.968;2022-10-16T11:42:31;23.90;99.90
16829;DHT22;8531;48.078;11.968;2022-10-16T11:48:08;23.80;99.90
16829;DHT22;8531;48.078;11.968;2022-10-16T11:50:48;23.80;99.90
16829;DHT22;8531;48.078;11.968;2022-10-16T11:56:16;24.00;99.90
16829;DHT22;8531;48.078;11.968;2022-10-16T12:01:51;24.30;99.90
16829;DHT22;8531;48.078;11.968;2022-10-16T12:06:55;23.90;99.90
16829;DHT22;8531;48.078;11.968;2022-10-16T12:09:28;23.90;99.90
16829;DHT22;8531;48.078;11.968;2022-10-16T12:11:55;23.90;99.90
16829;DHT22;8531;48.078;11.968;2022-10-16T12:14:22;24.00;99.90
16829;DHT22;8531;48.078;11.968;2022-10-16T12:17:37;23.90;99.90
16829;DHT22;8531;48.078;11.968;2022-10-16T12:22:42;24.00;99.90
16829;DHT22;8531;48.078;11.968;2022-10-16T12:25:21;24.10;99.90
16829;DHT22;8531;48.078;11.968;2022-10-16T12:27:59;24.00;99.90
16829;DHT22;8531;48.078;11.968;2022-10-16T12:30:26;24.10;99.90
16829;DHT22;8531;48.078;11.968;2022-10-16T12:32:58;24.20;99.90
16829;DHT22;8531;48.078;11.968;2022-10-16T12:35:29;24.50;99.90
16829;DHT22;8531;48.078;11.968;2022-10-16T12:38:06;24.50;99.90
16829;DHT22;8531;48.078;11.968;2022-10-16T12:40:35;24.70;99.90
16829;DHT22;8531;48.078;11.968;2022-10-16T12:43:12;24.60;99.90
16829;DHT22;8531;48.078;11.968;2022-10-16T12:45:38;24.50;99.90
16829;DHT22;8531;48.078;11.968;2022-10-16T12:48:21;24.40;99.90
16829;DHT22;8531;48.078;11.968;2022-10-16T12:50:47;24.20;99.90
16829;DHT22;8531;48.078;11.968;2022-10-16T12:53:22;24.20;99.90
16829;DHT22;8531;48.078;11.968;2022-10-16T12:58:33;24.20;99.90
16829;DHT22;8531;48.078;11.968;2022-10-16T13:06:48;24.10;99.90
16829;DHT22;8531;48.078;11.968;2022-10-16T13:17:45;24.00;99.90
16829;DHT22;8531;48.078;11.968;2022-10-16T13:23:16;23.90;99.90
16829;DHT22;8531;48.078;11.968;2022-10-16T13:28:42;23.90;99.90
16829;DHT22;8531;48.078;11.968;2022-10-16T13:31:21;23.80;99.90
16829;DHT22;8531;48.078;11.968;2022-10-16T13:33:51;23.70;99.90
16829;DHT22;8531;48.078;11.968;2022-10-16T13:36:26;23.70;99.90
16829;DHT22;8531;48.078;11.968;2022-10-16T13:39:14;23.70;99.90
16829;DHT22;8531;48.078;11.968;2022-10-16T13:41:42;23.60;99.90
16829;DHT22;8531;48.078;11.968;2022-10-16T13:44:20;23.60;99.90
16829;DHT22;8531;48.078;11.968;2022-10-16T13:46:46;23.60;99.90
16829;DHT22;8531;48.078;11.968;2022-10-16T13:49:16;23.60;99.90
16829;DHT22;8531;48.078;11.968;2022-10-16T13:51:58;23.70;99.90
16829;DHT22;8531;48.078;11.968;2022-10-16T13:54:25;23.80;99.90
16829;DHT22;8531;48.078;11.968;2022-10-16T13:56:51;23.80;99.90
16829;DHT22;8531;48.078;11.968;2022-10-16T13:59:36;23.90;99.90
16829;DHT22;8531;48.078;11.968;2022-10-16T14:02:26;23.80;99.90
16829;DHT22;8531;48.078;11.968;2022-10-16T14:04:54;23.80;99.90
16829;DHT22;8531;48.078;11.968;2022-10-16T14:07:34;23.90;99.90
16829;DHT22;8531;48.078;11.968;2022-10-16T14:10:03;23.80;99.90
16829;DHT22;8531;48.078;11.968;2022-10-16T14:12:30;23.80;99.90
16829;DHT22;8531;48.078;11.968;2022-10-16T14:14:57;23.80;99.90
16829;DHT22;8531;48.078;11.968;2022-10-16T14:17:29;23.70;99.90
16829;DHT22;8531;48.078;11.968;2022-10-16T14:19:58;23.60;99.90
16829;DHT22;8531;48.078;11.968;2022-10-16T14:22:36;23.80;99.90
16829;DHT22;8531;48.078;11.968;2022-10-16T14:27:44;23.60;99.90
16829;DHT22;8531;48.078;11.968;2022-10-16T14:30:21;23.70;99.90
16829;DHT22;8531;48.078;11.968;2022-10-16T14:33:18;23.80;99.90
16829;DHT22;8531;48.078;11.968;2022-10-16T14:35:44;23.80;99.90
16829;DHT22;8531;48.078;11.968;2022-10-16T14:38:19;23.90;99.90
16829;DHT22;8531;48.078;11.968;2022-10-16T14:40:49;23.90;99.90
16829;DHT22;8531;48.078;11.968;2022-10-16T14:43:28;24.10;99.90
16829;DHT22;8531;48.078;11.968;2022-10-16T14:45:57;24.20;99.90
16829;DHT22;8531;48.078;11.968;2022-10-16T14:48:23;24.10;99.90
16829;DHT22;8531;48.078;11.968;2022-10-16T14:50:50;23.90;99.90
16829;DHT22;8531;48.078;11.968;2022-10-16T14:53:16;23.70;99.90
16829;DHT22;8531;48.078;11.968;2022-10-16T14:55:42;23.50;99.90
16829;DHT22;8531;48.078;11.968;2022-10-16T14:58:26;23.20;99.90
16829;DHT22;8531;48.078;11.968;2022-10-16T15:00:52;23.00;99.90
16829;DHT22;8531;48.078;11.968;2022-10-16T15:03:17;22.80;99.90
16829;DHT22;8531;48.078;11.968;2022-10-16T15:05:43;22.70;99.90
16829;DHT22;8531;48.078;11.968;2022-10-16T15:08:09;22.50;99.90
16829;DHT22;8531;48.078;11.968;2022-10-16T15:10:40;22.50;99.90
16829;DHT22;8531;48.078;11.968;2022-10-16T15:13:06;22.40;99.90
16829;DHT22;8531;48.078;11.968;2022-10-16T15:15:37;22.30;99.90
16829;DHT22;8531;48.078;11.968;2022-10-16T15:18:04;22.20;99.90
16829;DHT22;8531;48.078;11.968;2022-10-16T15:20:33;22.10;99.90
16829;DHT22;8531;48.078;11.968;2022-10-16T15:23:10;22.00;99.90
16829;DHT22;8531;48.078;11.968;2022-10-16T15:25:48;22.00;99.90
16829;DHT22;8531;48.078;11.968;2022-10-16T15:28:15;21.90;99.90
16829;DHT22;8531;48.078;11.968;2022-10-16T15:30:42;21.90;99.90
16829;DHT22;8531;48.078;11.968;2022-10-16T15:33:13;21.80;99.90
16829;DHT22;8531;48.078;11.968;2022-10-16T15:35:39;21.70;99.90
16829;DHT22;8531;48.078;11.968;2022-10-16T15:38:05;21.60;99.90
16829;DHT22;8531;48.078;11.968;2022-10-16T15:40:31;21.60;99.90
16829;DHT22;8531;48.078;11.968;2022-10-16T15:42:56;21.50;99.90
16829;DHT22;8531;48.078;11.968;2022-10-16T15:45:22;21.40;99.90
16829;DHT22;8531;48.078;11.968;2022-10-16T15:47:48;21.30;99.90
16829;DHT22;8531;48.078;11.968;2022-10-16T15:50:15;21.20;99.90
16829;DHT22;8531;48.078;11.968;2022-10-16T15:52:41;21.20;99.90
16829;DHT22;8531;48.078;11.968;2022-10-16T15:55:11;21.10;99.90
16829;DHT22;8531;48.078;11.968;2022-10-16T15:57:37;21.10;99.90
16829;DHT22;8531;48.078;11.968;2022-10-16T16:00:10;21.10;99.90
16829;DHT22;8531;48.078;11.968;2022-10-16T16:02:36;21.00;99.90
16829;DHT22;8531;48.078;11.968;2022-10-16T16:05:02;21.00;99.90
16829;DHT22;8531;48.078;11.968;2022-10-16T16:07:32;20.90;99.90
16829;DHT22;8531;48.078;11.968;2022-10-16T16:09:57;20.90;99.90
16829;DHT22;8531;48.078;11.968;2022-10-16T16:12:23;20.90;99.90
16829;DHT22;8531;48.078;11.968;2022-10-16T16:14:49;20.90;99.90
16829;DHT22;8531;48.078;11.968;2022-10-16T16:17:15;20.80;99.90
16829;DHT22;8531;48.078;11.968;2022-10-16T16:19:40;20.70;99.90
16829;DHT22;8531;48.078;11.968;2022-10-16T16:22:06;20.60;99.90
16829;DHT22;8531;48.078;11.968;2022-10-16T16:24:32;20.50;99.90
16829;DHT22;8531;48.078;11.968;2022-10-16T16:26:57;20.50;99.90
16829;DHT22;8531;48.078;11.968;2022-10-16T16:29:23;20.40;99.90
16829;DHT22;8531;48.078;11.968;2022-10-16T16:31:48;20.30;99.90
16829;DHT22;8531;48.078;11.968;2022-10-16T16:34:14;20.20;99.90
16829;DHT22;8531;48.078;11.968;2022-10-16T16:36:40;20.10;99.90
16829;DHT22;8531;48.078;11.968;2022-10-16T16:39:07;20.10;99.90
16829;DHT22;8531;48.078;11.968;2022-10-16T16:41:32;20.00;99.90
16829;DHT22;8531;48.078;11.968;2022-10-16T16:44:04;19.90;99.90
16829;DHT22;8531;48.078;11.968;2022-10-16T16:46:32;19.80;99.90
16829;DHT22;8531;48.078;11.968;2022-10-16T16:48:58;19.70;99.90
16829;DHT22;8531;48.078;11.968;2022-10-16T16:51:24;19.60;99.90
16829;DHT22;8531;48.078;11.968;2022-10-16T16:53:51;19.50;99.90
16829;DHT22;8531;48.078;11.968;2022-10-16T16:56:18;19.50;99.90
16829;DHT22;8531;48.078;11.968;2022-10-16T16:58:48;19.40;99.90
16829;DHT22;8531;48.078;11.968;2022-10-16T17:01:15;19.30;99.90
16829;DHT22;8531;48.078;11.968;2022-10-16T17:03:43;19.20;99.90
16829;DHT22;8531;48.078;11.968;2022-10-16T17:06:13;19.10;99.90
16829;DHT22;8531;48.078;11.968;2022-10-16T17:08:42;19.10;99.90
16829;DHT22;8531;48.078;11.968;2022-10-16T17:11:13;19.10;99.90
16829;DHT22;8531;48.078;11.968;2022-10-16T17:13:39;18.90;99.90
16829;DHT22;8531;48.078;11.968;2022-10-16T17:16:05;18.90;99.90
16829;DHT22;8531;48.078;11.968;2022-10-16T17:18:31;18.80;99.90
16829;DHT22;8531;48.078;11.968;2022-10-16T17:21:06;18.70;99.90
16829;DHT22;8531;48.078;11.968;2022-10-16T17:23:33;18.70;99.90
16829;DHT22;8531;48.078;11.968;2022-10-16T17:26:10;18.60;99.90
16829;DHT22;8531;48.078;11.968;2022-10-16T17:28:36;18.50;99.90
16829;DHT22;8531;48.078;11.968;2022-10-16T17:31:18;18.50;99.90
16829;DHT22;8531;48.078;11.968;2022-10-16T17:33:45;18.50;99.90
16829;DHT22;8531;48.078;11.968;2022-10-16T17:36:11;18.40;99.90
16829;DHT22;8531;48.078;11.968;2022-10-16T17:38:42;18.30;99.90
16829;DHT22;8531;48.078;11.968;2022-10-16T17:41:19;18.30;99.90
16829;DHT22;8531;48.078;11.968;2022-10-16T17:43:46;18.20;99.90